Terminal Aerodrome Forecast
Issued by NWS

Home | Current Version | Previous Version | Text Only | Print | Product List | Glossary On
Versions: 1 2 3 4 5 6 7 8 9 10 11 12 13 14 15 16 17 18 19
000
FTUS41 KBOX 311129
TAFHYA
TAF
KHYA 311129Z 3112/0112 02005KT P6SM OVC060
     FM311500 05008KT P6SM BKN050
     FM010200 07012KT P6SM OVC045
     FM010600 05011G21KT P6SM OVC025
     FM010800 04013G23KT 6SM -RA BR OVC050=

USA.gov is the U.S. government's official web portal to all federal, state and local government web resources and services.